Time;durP1;ratioP1;P1;durP2;ratioP2;P2;SDS_P1;SDS_P2;PMS_P1;PMS_P2;Temp;Humidity;BMP_temperature;BMP_pressure;BME280_temperature;BME280_humidity;BME280_pressure;Samples;Min_cycle;Max_cycle;Signal;HPM_P1;HPM_P2
2022/07/17 00:01:52;;;;;;;3.50;3.20;;;15.30;99.90;;;;;;4991856;28;20200;-74
2022/07/17 00:04:18;;;;;;;5.67;3.80;;;15.30;99.90;;;;;;4992456;28;20186;-75
2022/07/17 00:06:43;;;;;;;5.40;3.60;;;15.20;99.90;;;;;;4991906;28;20180;-75
2022/07/17 00:09:09;;;;;;;5.20;4.10;;;15.20;99.90;;;;;;4991825;28;20186;-73
2022/07/17 00:11:34;;;;;;;4.00;3.70;;;15.20;99.90;;;;;;4991672;28;20660;-75
2022/07/17 00:14:00;;;;;;;5.17;4.47;;;15.10;99.90;;;;;;4992412;28;20175;-75
2022/07/17 00:16:25;;;;;;;4.20;3.80;;;15.10;99.90;;;;;;4991993;28;20180;-74
2022/07/17 00:18:51;;;;;;;3.73;3.43;;;15.10;99.90;;;;;;4991799;28;20194;-74
2022/07/17 00:21:17;;;;;;;3.57;3.37;;;15.10;99.90;;;;;;4991322;28;20199;-75
2022/07/17 00:23:42;;;;;;;4.60;4.10;;;15.00;99.90;;;;;;4992164;28;20190;-74
2022/07/17 00:26:09;;;;;;;5.90;4.30;;;14.90;99.90;;;;;;4991680;28;20175;-72
2022/07/17 00:28:34;;;;;;;4.70;4.30;;;14.90;99.90;;;;;;4991995;28;20167;-74
2022/07/17 00:31:00;;;;;;;8.80;5.17;;;14.80;99.90;;;;;;4989966;28;21020;-74
2022/07/17 00:33:25;;;;;;;12.13;4.23;;;14.80;99.90;;;;;;4990779;28;20191;-75
2022/07/17 00:35:51;;;;;;;6.73;4.03;;;14.80;99.90;;;;;;4991734;28;20592;-74
2022/07/17 00:38:16;;;;;;;5.00;4.57;;;14.80;99.90;;;;;;4991255;28;20336;-75
2022/07/17 00:40:42;;;;;;;5.10;4.60;;;14.70;99.90;;;;;;4990879;28;20186;-74
2022/07/17 00:43:07;;;;;;;4.47;4.07;;;14.70;99.90;;;;;;4991447;28;20286;-74
2022/07/17 00:45:33;;;;;;;5.20;4.27;;;14.60;99.90;;;;;;4991355;28;20212;-74
2022/07/17 00:48:01;;;;;;;7.60;5.20;;;14.60;99.90;;;;;;4991409;28;20183;-76
2022/07/17 00:50:32;;;;;;;9.03;4.30;;;14.60;99.90;;;;;;4990853;28;20215;-75
2022/07/17 00:52:58;;;;;;;5.53;3.80;;;14.70;99.90;;;;;;4990757;28;20438;-75
2022/07/17 00:55:24;;;;;;;4.97;4.47;;;14.60;99.90;;;;;;4991706;28;21117;-74
2022/07/17 00:57:51;;;;;;;5.70;4.30;;;14.60;99.90;;;;;;4991134;28;20181;-74
2022/07/17 02:31:33;;;;;;;6.27;4.50;;;13.50;99.90;;;;;;5644674;23;20525;-74
2022/07/17 02:33:59;;;;;;;4.87;4.50;;;13.50;99.90;;;;;;4969414;28;20416;-75
2022/07/17 02:36:24;;;;;;;5.40;4.90;;;13.50;99.90;;;;;;4966501;28;20197;-75
2022/07/17 02:38:50;;;;;;;7.07;5.30;;;13.50;99.90;;;;;;4952364;29;20188;-75
2022/07/17 02:41:16;;;;;;;5.80;5.20;;;13.40;99.90;;;;;;4951405;28;20207;-75
2022/07/17 02:43:42;;;;;;;9.00;5.80;;;13.40;99.90;;;;;;4951553;29;20451;-74
2022/07/17 02:46:08;;;;;;;5.17;4.67;;;13.40;99.90;;;;;;4951636;29;20177;-75
2022/07/17 02:48:33;;;;;;;5.40;4.90;;;13.40;99.90;;;;;;4952092;29;20422;-76
2022/07/17 02:50:59;;;;;;;6.30;5.70;;;13.40;99.90;;;;;;4950899;28;20216;-76
2022/07/17 02:53:24;;;;;;;6.27;5.50;;;13.30;99.90;;;;;;4952387;28;20173;-75
2022/07/17 02:55:50;;;;;;;6.73;4.97;;;13.20;99.90;;;;;;4955490;29;20240;-75
2022/07/17 02:58:15;;;;;;;6.50;5.90;;;13.20;99.90;;;;;;4955681;29;20181;-75
2022/07/17 03:00:41;;;;;;;5.57;5.17;;;13.20;99.90;;;;;;4954919;28;20249;-72
2022/07/17 03:03:06;;;;;;;6.10;5.60;;;13.10;99.90;;;;;;4954675;29;20548;-75
2022/07/17 03:05:32;;;;;;;9.80;5.00;;;13.10;99.90;;;;;;4955787;29;20181;-76
2022/07/17 03:07:58;;;;;;;5.70;4.80;;;13.10;99.90;;;;;;4955485;29;20184;-76
2022/07/17 03:10:24;;;;;;;5.40;4.80;;;13.00;99.90;;;;;;4955026;29;20452;-72
2022/07/17 03:12:50;;;;;;;9.93;5.67;;;13.00;99.90;;;;;;4955035;28;20197;-75
2022/07/17 03:15:15;;;;;;;6.23;5.63;;;13.00;99.90;;;;;;4954645;29;20408;-75
2022/07/17 03:17:41;;;;;;;6.70;5.70;;;13.00;99.90;;;;;;4954778;29;20179;-72
2022/07/17 03:20:09;;;;;;;5.80;5.23;;;13.00;99.90;;;;;;4954740;29;20208;-75
2022/07/17 03:22:34;;;;;;;5.83;5.13;;;13.00;99.90;;;;;;4954223;28;20515;-75
2022/07/17 03:25:00;;;;;;;7.17;6.17;;;13.00;99.90;;;;;;4955209;29;20519;-75
2022/07/17 03:27:25;;;;;;;6.97;6.00;;;12.90;99.90;;;;;;4954758;29;20181;-75
2022/07/17 03:29:53;;;;;;;6.93;5.90;;;12.90;99.90;;;;;;4953806;29;20239;-76
2022/07/17 03:32:18;;;;;;;6.60;5.73;;;12.90;99.90;;;;;;4953546;28;20299;-76
2022/07/17 03:34:44;;;;;;;7.37;6.63;;;12.80;99.90;;;;;;4954755;29;20519;-75
2022/07/17 03:37:09;;;;;;;10.33;6.37;;;12.80;99.90;;;;;;4955077;29;20173;-76
2022/07/17 03:39:35;;;;;;;6.50;6.00;;;12.70;99.90;;;;;;4954541;29;20187;-76
2022/07/17 03:42:00;;;;;;;6.47;5.87;;;12.70;99.90;;;;;;4936064;29;20208;-74
2022/07/17 03:44:26;;;;;;;9.60;6.07;;;12.70;99.90;;;;;;4954536;29;20723;-75
2022/07/17 03:46:52;;;;;;;8.13;5.93;;;12.60;99.90;;;;;;4953977;29;20178;-73
2022/07/17 03:49:17;;;;;;;9.33;6.77;;;12.70;99.90;;;;;;4953836;29;20504;-74
2022/07/17 03:51:42;;;;;;;8.00;6.83;;;12.70;99.90;;;;;;4953334;28;20239;-73
2022/07/17 03:54:08;;;;;;;8.90;6.90;;;12.70;99.90;;;;;;4954060;29;20279;-73
2022/07/17 03:56:34;;;;;;;7.50;6.80;;;12.70;99.90;;;;;;4953836;29;20182;-73
2022/07/17 03:58:59;;;;;;;6.97;6.27;;;12.70;99.90;;;;;;4953818;29;20683;-71
2022/07/17 04:01:25;;;;;;;6.47;5.87;;;12.70;99.90;;;;;;4952936;28;20252;-73
2022/07/17 04:03:50;;;;;;;6.13;5.60;;;12.60;99.90;;;;;;4953906;28;20551;-73
2022/07/17 04:06:16;;;;;;;11.40;7.57;;;12.60;99.90;;;;;;4954225;29;20184;-75
2022/07/17 04:08:41;;;;;;;14.67;6.70;;;12.60;99.90;;;;;;4953211;29;20179;-74
2022/07/17 04:11:07;;;;;;;8.53;6.70;;;12.60;99.90;;;;;;4952858;28;20236;-73
2022/07/17 04:13:32;;;;;;;6.50;5.90;;;12.60;99.90;;;;;;4953985;29;20256;-73
2022/07/17 04:15:59;;;;;;;7.53;5.33;;;12.70;99.90;;;;;;4953107;29;20546;-73
2022/07/17 04:18:28;;;;;;;7.83;7.00;;;12.70;99.90;;;;;;4936490;29;20661;-74
2022/07/17 04:20:56;;;;;;;8.80;6.00;;;12.70;99.90;;;;;;4952983;28;20452;-73
2022/07/17 04:23:22;;;;;;;7.37;6.77;;;12.70;99.90;;;;;;4953076;29;20412;-71
2022/07/17 04:25:48;;;;;;;6.27;5.77;;;12.70;99.90;;;;;;4953695;29;20398;-74
2022/07/17 04:28:14;;;;;;;6.90;6.30;;;12.80;99.90;;;;;;4953503;29;20413;-74
2022/07/17 04:30:40;;;;;;;7.13;5.67;;;12.80;99.90;;;;;;4952191;28;20204;-73
2022/07/17 04:33:05;;;;;;;6.03;5.63;;;12.90;99.90;;;;;;4953258;29;20918;-73
2022/07/17 04:35:31;;;;;;;7.40;6.17;;;12.90;99.90;;;;;;4953440;29;20186;-73
2022/07/17 04:37:57;;;;;;;9.30;6.20;;;12.90;99.90;;;;;;4952940;29;20547;-73
2022/07/17 04:40:23;;;;;;;6.13;5.70;;;13.00;99.90;;;;;;4935889;29;20655;-74
2022/07/17 04:42:48;;;;;;;7.27;6.67;;;13.00;99.90;;;;;;4953391;28;20200;-73
2022/07/17 04:45:14;;;;;;;5.73;5.23;;;13.10;99.90;;;;;;4953153;29;20177;-73
2022/07/17 04:47:39;;;;;;;11.33;6.10;;;13.20;99.90;;;;;;4952495;29;20177;-73
2022/07/17 04:50:06;;;;;;;6.03;5.43;;;13.20;99.90;;;;;;4953535;29;20279;-73
2022/07/17 04:52:31;;;;;;;6.63;6.00;;;13.30;99.90;;;;;;4952590;28;20196;-73
2022/07/17 04:54:57;;;;;;;6.53;5.93;;;13.40;99.90;;;;;;4953575;29;20420;-73
2022/07/17 04:57:22;;;;;;;6.87;6.13;;;13.40;99.90;;;;;;4952546;29;20231;-73
2022/07/17 04:59:48;;;;;;;6.07;5.33;;;13.60;99.90;;;;;;4952714;29;20555;-73
2022/07/17 05:02:13;;;;;;;6.87;6.37;;;13.60;99.90;;;;;;4952241;28;20284;-75
2022/07/17 05:04:39;;;;;;;6.10;5.50;;;13.70;99.90;;;;;;4952720;29;20193;-73
2022/07/17 05:07:04;;;;;;;6.73;6.13;;;13.80;99.90;;;;;;4952859;29;20621;-73
2022/07/17 05:09:30;;;;;;;6.63;5.93;;;13.90;99.90;;;;;;4952669;29;20200;-74
2022/07/17 05:11:55;;;;;;;6.10;5.60;;;14.00;99.90;;;;;;4936048;29;20470;-74
2022/07/17 05:14:21;;;;;;;6.77;6.07;;;14.30;99.90;;;;;;4952298;29;20176;-70
2022/07/17 05:16:46;;;;;;;8.97;6.60;;;14.70;99.90;;;;;;4952273;28;20164;-74
2022/07/17 05:19:12;;;;;;;5.47;4.97;;;15.40;99.90;;;;;;4953091;29;20255;-74
2022/07/17 05:21:38;;;;;;;6.10;5.00;;;16.10;99.90;;;;;;4952648;28;20295;-73
2022/07/17 05:24:04;;;;;;;5.63;4.77;;;16.80;99.90;;;;;;4952942;29;20176;-73
2022/07/17 05:26:30;;;;;;;5.57;5.07;;;17.50;99.90;;;;;;4952544;29;20661;-73
2022/07/17 05:28:55;;;;;;;5.30;4.97;;;18.10;99.90;;;;;;4952952;29;20416;-77
2022/07/17 05:31:21;;;;;;;4.40;4.03;;;18.70;99.90;;;;;;4951280;28;20227;-70
2022/07/17 05:33:46;;;;;;;4.50;4.20;;;19.20;99.90;;;;;;4953273;29;20188;-72
2022/07/17 05:36:12;;;;;;;4.40;4.00;;;19.70;99.90;;;;;;4935384;29;20549;-73
2022/07/17 05:38:37;;;;;;;4.77;4.37;;;20.20;99.90;;;;;;4952537;29;20557;-74
2022/07/17 05:41:03;;;;;;;7.77;4.63;;;20.40;99.90;;;;;;4950668;28;20209;-74
2022/07/17 05:43:29;;;;;;;6.67;4.80;;;20.70;99.90;;;;;;4951758;29;20180;-74
2022/07/17 05:45:56;;;;;;;5.30;4.80;;;21.10;99.90;;;;;;4951820;29;21016;-74
2022/07/17 05:48:22;;;;;;;10.93;5.03;;;21.40;99.90;;;;;;4952030;29;20185;-71
2022/07/17 05:50:48;;;;;;;5.10;4.70;;;21.60;99.90;;;;;;4951089;28;20459;-72
2022/07/17 05:53:14;;;;;;;6.00;4.60;;;21.80;99.90;;;;;;4951450;29;20424;-72
2022/07/17 05:55:40;;;;;;;5.30;4.90;;;21.80;99.90;;;;;;4952627;29;20169;-72
2022/07/17 05:58:06;;;;;;;5.97;5.57;;;21.80;99.90;;;;;;4951634;29;20412;-72
2022/07/17 06:00:32;;;;;;;7.53;4.80;;;21.80;99.90;;;;;;4934283;29;20528;-69
2022/07/17 06:02:58;;;;;;;9.63;5.27;;;21.80;99.90;;;;;;4951748;28;21020;-73
2022/07/17 06:05:23;;;;;;;5.63;4.50;;;22.00;99.90;;;;;;4952187;29;20616;-72
2022/07/17 06:07:49;;;;;;;7.43;4.90;;;22.10;99.90;;;;;;4951471;29;20201;-72
2022/07/17 06:10:14;;;;;;;6.47;4.80;;;22.20;99.90;;;;;;4951651;29;20632;-73
2022/07/17 06:12:40;;;;;;;7.33;4.20;;;22.30;99.90;;;;;;4951255;28;20200;-72
2022/07/17 06:15:06;;;;;;;10.40;4.30;;;22.40;99.90;;;;;;4951837;29;20200;-72
2022/07/17 06:17:31;;;;;;;4.83;4.43;;;22.50;99.90;;;;;;4951928;29;20546;-72
2022/07/17 06:19:57;;;;;;;4.77;4.47;;;22.30;99.90;;;;;;4950988;29;20432;-72
2022/07/17 06:22:23;;;;;;;5.17;4.47;;;22.20;99.90;;;;;;4950849;28;20755;-72
2022/07/17 06:24:49;;;;;;;4.80;4.40;;;22.40;99.90;;;;;;4952018;29;20593;-72
2022/07/17 06:27:14;;;;;;;4.47;4.13;;;22.60;99.90;;;;;;4951662;28;20541;-73
2022/07/17 06:29:40;;;;;;;4.07;3.67;;;22.90;99.90;;;;;;4954461;29;20208;-73
2022/07/17 06:32:06;;;;;;;3.37;3.07;;;23.10;99.90;;;;;;4954056;28;20216;-73
2022/07/17 06:34:32;;;;;;;3.87;3.63;;;23.20;99.90;;;;;;4955277;29;20173;-73
2022/07/17 06:36:57;;;;;;;5.00;3.97;;;23.40;99.90;;;;;;4955485;29;20408;-72
2022/07/17 06:39:23;;;;;;;7.70;4.10;;;23.70;99.90;;;;;;4955047;29;20549;-73
2022/07/17 06:41:48;;;;;;;4.07;3.70;;;23.70;99.90;;;;;;4954802;28;20197;-73
2022/07/17 06:44:14;;;;;;;4.10;3.80;;;24.00;99.90;;;;;;4954009;29;20183;-74
2022/07/17 06:46:39;;;;;;;4.10;3.70;;;24.00;99.90;;;;;;4955334;29;20180;-74
2022/07/17 06:49:05;;;;;;;3.77;3.50;;;24.20;99.90;;;;;;4954970;29;20208;-75
2022/07/17 06:51:30;;;;;;;4.73;4.33;;;24.50;99.90;;;;;;4959575;28;20765;-75
2022/07/17 06:53:56;;;;;;;5.07;3.80;;;24.60;99.90;;;;;;4974547;28;20223;-74
2022/07/17 06:56:22;;;;;;;3.97;3.40;;;24.80;99.90;;;;;;4974108;28;20172;-73
2022/07/17 06:58:47;;;;;;;6.27;4.10;;;25.00;99.90;;;;;;4974002;28;20736;-74
2022/07/17 07:01:13;;;;;;;6.20;3.07;;;24.80;99.90;;;;;;4973313;28;20199;-75
2022/07/17 07:03:38;;;;;;;6.53;3.50;;;24.90;99.90;;;;;;4974766;28;20210;-74
2022/07/17 07:06:04;;;;;;;5.00;3.47;;;25.20;99.90;;;;;;4974049;28;20192;-74
2022/07/17 07:08:29;;;;;;;12.43;4.30;;;25.50;99.90;;;;;;4974169;28;20231;-72
2022/07/17 07:10:55;;;;;;;3.70;3.40;;;25.80;99.90;;;;;;4972610;28;20212;-74
2022/07/17 07:13:21;;;;;;;6.03;3.20;;;26.10;99.90;;;;;;4973821;28;20176;-72
2022/07/17 07:15:46;;;;;;;3.80;3.37;;;26.40;99.90;;;;;;4973472;28;20545;-74
2022/07/17 07:18:12;;;;;;;3.80;3.60;;;26.50;99.90;;;;;;4973953;28;20661;-74
2022/07/17 07:20:38;;;;;;;7.10;4.37;;;26.40;99.90;;;;;;4972987;28;20214;-74
2022/07/17 07:23:04;;;;;;;2.73;2.53;;;26.40;99.90;;;;;;4973711;28;20660;-74
2022/07/17 07:25:30;;;;;;;3.87;3.57;;;26.40;99.90;;;;;;4974644;28;20183;-75
2022/07/17 07:27:56;;;;;;;4.80;3.20;;;26.40;99.90;;;;;;4973649;28;20416;-74
2022/07/17 07:30:21;;;;;;;3.37;3.07;;;26.60;99.90;;;;;;4973540;28;20534;-73
2022/07/17 07:32:47;;;;;;;3.73;2.83;;;27.00;99.90;;;;;;4973397;28;20616;-74
2022/07/17 07:35:12;;;;;;;3.40;3.10;;;27.30;99.90;;;;;;4973769;28;20230;-73
2022/07/17 07:37:38;;;;;;;2.93;2.70;;;27.70;99.90;;;;;;4973293;28;20172;-74
2022/07/17 07:40:05;;;;;;;3.10;2.80;;;27.60;99.80;;;;;;4972863;28;20181;-74
2022/07/17 07:42:30;;;;;;;2.57;2.47;;;27.60;99.90;;;;;;4973252;28;20442;-74
2022/07/17 07:44:56;;;;;;;3.07;2.80;;;27.80;99.70;;;;;;4973578;28;20423;-75
2022/07/17 07:47:21;;;;;;;5.23;2.90;;;27.60;98.50;;;;;;4973616;28;20210;-71
2022/07/17 07:49:47;;;;;;;3.73;3.27;;;27.60;98.20;;;;;;4972849;28;20274;-75
2022/07/17 07:52:12;;;;;;;1.93;1.83;;;27.60;97.30;;;;;;4972605;28;20204;-74
2022/07/17 07:54:38;;;;;;;3.00;2.17;;;27.60;97.30;;;;;;4973731;28;20177;-74
2022/07/17 07:57:03;;;;;;;4.03;2.90;;;27.90;96.90;;;;;;4972965;28;20657;-74
2022/07/17 07:59:33;;;;;;;2.30;2.10;;;27.90;96.10;;;;;;4973148;28;20183;-74
2022/07/17 08:01:59;;;;;;;2.17;2.07;;;28.10;96.90;;;;;;4972592;28;20573;-75
2022/07/17 08:04:25;;;;;;;2.87;2.57;;;28.20;96.70;;;;;;4973136;28;20416;-74
2022/07/17 08:06:51;;;;;;;4.57;2.73;;;28.50;95.10;;;;;;4973143;28;20417;-75
2022/07/17 08:09:16;;;;;;;2.73;2.30;;;28.40;95.20;;;;;;4973167;28;20176;-74
2022/07/17 08:11:42;;;;;;;2.73;2.53;;;28.30;94.20;;;;;;4972381;28;20215;-73
2022/07/17 08:14:08;;;;;;;3.33;1.80;;;28.40;93.80;;;;;;4973051;28;20662;-74
2022/07/17 08:16:33;;;;;;;2.93;2.70;;;28.10;93.60;;;;;;4972939;28;20180;-75
2022/07/17 08:18:59;;;;;;;2.77;1.70;;;28.20;93.80;;;;;;4973126;28;20786;-73
2022/07/17 08:21:25;;;;;;;2.13;2.00;;;28.30;94.90;;;;;;4971352;28;20565;-75
2022/07/17 08:23:50;;;;;;;2.00;1.90;;;28.60;92.90;;;;;;4972837;28;20251;-75
2022/07/17 08:26:16;;;;;;;2.13;1.93;;;28.90;93.70;;;;;;4972347;28;20184;-75
2022/07/17 08:28:41;;;;;;;2.40;1.83;;;29.30;92.00;;;;;;4972745;28;20675;-73
2022/07/17 08:31:07;;;;;;;3.53;2.03;;;29.50;92.00;;;;;;4971596;28;20226;-73
2022/07/17 08:33:32;;;;;;;2.50;2.30;;;29.50;90.00;;;;;;4972843;28;20180;-75
2022/07/17 08:35:58;;;;;;;3.10;2.20;;;29.50;90.80;;;;;;4972460;28;20692;-74
2022/07/17 08:38:24;;;;;;;4.87;2.00;;;29.60;91.20;;;;;;4973022;28;20180;-74
2022/07/17 08:40:52;;;;;;;3.67;1.80;;;29.70;91.10;;;;;;4972024;28;20590;-74
2022/07/17 08:43:18;;;;;;;2.20;2.10;;;29.90;90.50;;;;;;4972503;28;20753;-75
2022/07/17 08:45:44;;;;;;;2.47;2.37;;;29.70;87.40;;;;;;4972474;28;20419;-73
2022/07/17 08:48:13;;;;;;;2.80;2.53;;;29.60;89.50;;;;;;4972348;28;20179;-74
2022/07/17 08:50:39;;;;;;;2.43;2.23;;;29.60;88.50;;;;;;4970392;28;20625;-74
2022/07/17 08:53:05;;;;;;;2.77;2.10;;;29.50;90.00;;;;;;4971933;28;20487;-75
2022/07/17 08:55:30;;;;;;;1.83;1.73;;;30.00;88.10;;;;;;4972370;28;20252;-73
2022/07/17 08:57:56;;;;;;;2.10;2.00;;;30.40;88.50;;;;;;4972273;28;20180;-73
2022/07/17 09:00:23;;;;;;;6.23;2.13;;;30.70;86.70;;;;;;4971945;28;20188;-74
2022/07/17 09:02:58;;;;;;;1.80;1.70;;;30.80;84.80;;;;;;4971193;28;20283;-74
2022/07/17 09:05:27;;;;;;;2.07;1.97;;;30.90;83.70;;;;;;4971884;28;20435;-74
2022/07/17 09:07:53;;;;;;;3.10;2.00;;;31.10;85.70;;;;;;4972075;28;20424;-74
2022/07/17 09:10:18;;;;;;;3.00;1.93;;;31.60;83.00;;;;;;4971991;28;20859;-75
2022/07/17 09:12:44;;;;;;;1.90;1.73;;;32.00;81.60;;;;;;4971197;28;20199;-75
2022/07/17 09:15:18;;;;;;;4.17;1.77;;;32.30;81.90;;;;;;4971327;28;20230;-72
2022/07/17 09:17:55;;;;;;;3.90;2.20;;;32.50;81.10;;;;;;4971847;28;20412;-74
2022/07/17 09:20:22;;;;;;;2.23;2.13;;;32.20;78.60;;;;;;4971274;28;20813;-72
2022/07/17 09:23:01;;;;;;;1.50;1.40;;;32.10;78.30;;;;;;4971623;28;20439;-74
2022/07/17 09:25:42;;;;;;;2.03;1.43;;;32.20;76.90;;;;;;4972734;28;20411;-75
2022/07/17 09:28:10;;;;;;;3.50;1.63;;;32.60;75.90;;;;;;4971956;28;20435;-74
2022/07/17 09:30:38;;;;;;;2.40;1.60;;;32.80;74.80;;;;;;4970753;28;20836;-72
2022/07/17 09:33:11;;;;;;;2.70;1.40;;;33.20;74.50;;;;;;4971019;28;20427;-74
2022/07/17 09:35:48;;;;;;;1.70;1.60;;;33.20;75.50;;;;;;4971519;28;20467;-75
2022/07/17 09:38:25;;;;;;;7.10;2.00;;;33.10;71.00;;;;;;4971579;28;20408;-74
2022/07/17 09:41:21;;;;;;;3.97;1.80;;;33.20;72.20;;;;;;4970769;28;20498;-74
2022/07/17 09:43:52;;;;;;;1.83;1.73;;;32.90;70.60;;;;;;4971338;28;20438;-74
2022/07/17 09:46:30;;;;;;;1.53;1.43;;;32.50;71.60;;;;;;4971058;28;20423;-74
2022/07/17 09:49:09;;;;;;;1.97;1.30;;;32.90;73.40;;;;;;4971624;28;20935;-74
2022/07/17 09:51:38;;;;;;;4.10;1.67;;;32.80;68.80;;;;;;4970904;28;20458;-74
2022/07/17 09:54:05;;;;;;;2.23;1.33;;;33.20;67.30;;;;;;4971359;28;20422;-74
2022/07/17 09:56:33;;;;;;;1.33;1.10;;;33.80;66.90;;;;;;4970978;28;20426;-76
2022/07/17 09:59:06;;;;;;;3.60;1.60;;;33.60;66.10;;;;;;4971366;28;20439;-72
2022/07/17 10:01:38;;;;;;;3.13;1.53;;;34.00;68.50;;;;;;4970765;28;20819;-74
2022/07/17 10:04:04;;;;;;;1.70;1.37;;;33.70;67.30;;;;;;4975115;28;20767;-74
2022/07/17 10:06:30;;;;;;;1.00;1.00;;;34.00;64.00;;;;;;4975768;28;20427;-75
2022/07/17 10:08:56;;;;;;;2.13;1.47;;;34.20;58.70;;;;;;4974976;28;20787;-72
2022/07/17 10:11:25;;;;;;;1.70;1.60;;;34.40;59.00;;;;;;4974068;28;20475;-74
2022/07/17 10:13:53;;;;;;;1.63;1.30;;;34.50;61.70;;;;;;4975322;28;20644;-75
2022/07/17 10:16:27;;;;;;;1.70;1.60;;;34.40;60.80;;;;;;4975282;28;20919;-74
2022/07/17 10:18:54;;;;;;;1.10;1.10;;;33.30;60.70;;;;;;4973994;28;20419;-74
2022/07/17 10:21:21;;;;;;;1.43;1.10;;;32.40;60.10;;;;;;4974464;28;21146;-74
2022/07/17 10:24:06;;;;;;;3.47;2.43;;;32.30;63.10;;;;;;4974701;28;20427;-74
2022/07/17 10:26:38;;;;;;;2.13;1.20;;;32.60;62.30;;;;;;4975266;28;20989;-74
2022/07/17 10:29:07;;;;;;;3.50;1.20;;;32.50;63.30;;;;;;4974834;28;20426;-74
2022/07/17 10:31:34;;;;;;;2.07;1.00;;;33.10;62.10;;;;;;4974059;28;20471;-75
2022/07/17 10:34:05;;;;;;;4.63;1.30;;;33.40;61.00;;;;;;4974787;28;20807;-74
2022/07/17 10:36:42;;;;;;;3.90;1.17;;;33.60;60.20;;;;;;4973176;28;20462;-75
2022/07/17 10:39:18;;;;;;;1.50;1.40;;;33.00;57.20;;;;;;4974567;28;20430;-74
2022/07/17 10:41:57;;;;;;;1.50;1.10;;;32.60;58.00;;;;;;4974026;28;20802;-74
2022/07/17 10:44:30;;;;;;;2.20;1.20;;;32.60;58.40;;;;;;4974612;28;20856;-74
2022/07/17 10:46:56;;;;;;;1.50;1.40;;;32.50;59.60;;;;;;4974511;28;20419;-74
2022/07/17 10:49:26;;;;;;;1.57;1.47;;;33.10;59.00;;;;;;4974147;28;20419;-72
2022/07/17 10:51:52;;;;;;;1.40;1.37;;;33.30;60.70;;;;;;4973144;28;20434;-74
2022/07/17 10:54:18;;;;;;;1.30;1.30;;;33.60;58.50;;;;;;4974332;28;20415;-73
2022/07/17 10:56:47;;;;;;;1.40;1.10;;;33.30;56.50;;;;;;4974441;28;20763;-74
2022/07/17 10:59:12;;;;;;;1.10;1.10;;;33.10;55.80;;;;;;4974300;28;20947;-74
2022/07/17 11:01:39;;;;;;;2.60;1.13;;;33.00;58.00;;;;;;4972260;28;20443;-74
2022/07/17 11:04:06;;;;;;;2.30;1.37;;;33.30;58.60;;;;;;4974148;28;20176;-74
2022/07/17 11:06:34;;;;;;;1.37;1.03;;;33.50;57.60;;;;;;4973802;28;20897;-74
2022/07/17 11:09:03;;;;;;;1.63;1.30;;;33.40;57.40;;;;;;4974355;28;20511;-71
2022/07/17 11:11:38;;;;;;;1.47;1.20;;;33.30;55.20;;;;;;4973284;28;20837;-74
2022/07/17 11:14:20;;;;;;;1.03;1.03;;;32.80;56.30;;;;;;4973319;28;20411;-74
2022/07/17 11:16:57;;;;;;;2.23;1.43;;;32.50;58.40;;;;;;4974026;28;20414;-73
2022/07/17 11:19:39;;;;;;;1.25;1.00;;;32.50;56.20;;;;;;4973342;28;20745;-73
2022/07/17 11:22:09;;;;;;;2.50;1.27;;;32.50;58.10;;;;;;4973225;28;20228;-74
2022/07/17 11:24:42;;;;;;;1.63;1.53;;;32.60;59.10;;;;;;4974215;28;20773;-74
2022/07/17 11:27:11;;;;;;;2.30;1.23;;;32.80;58.80;;;;;;4974115;28;20916;-73
2022/07/17 11:29:37;;;;;;;1.07;1.07;;;33.10;59.30;;;;;;4974196;28;20415;-75
2022/07/17 11:32:03;;;;;;;1.40;1.27;;;33.30;58.80;;;;;;4970923;28;20503;-74
2022/07/17 11:34:29;;;;;;;1.87;1.33;;;33.40;57.10;;;;;;4973748;28;20462;-74
2022/07/17 11:37:00;;;;;;;1.47;1.37;;;33.10;56.00;;;;;;4973924;28;20849;-73
2022/07/17 11:39:26;;;;;;;1.03;1.03;;;32.50;56.20;;;;;;4973698;28;20180;-74
2022/07/17 11:41:53;;;;;;;2.40;1.23;;;31.90;57.50;;;;;;4972758;28;20437;-74
2022/07/17 11:44:21;;;;;;;2.30;1.13;;;31.90;57.00;;;;;;4973087;28;20583;-74
2022/07/17 11:46:49;;;;;;;1.57;1.47;;;31.70;58.60;;;;;;4974102;28;20410;-74
2022/07/17 11:49:44;;;;;;;1.77;1.67;;;31.60;58.30;;;;;;4973228;28;20423;-74
2022/07/17 11:52:15;;;;;;;1.63;1.50;;;31.70;59.80;;;;;;4959942;28;20667;-74
2022/07/17 11:54:50;;;;;;;1.23;1.13;;;31.80;57.40;;;;;;4973014;28;20496;-71
2022/07/17 11:57:17;;;;;;;3.30;1.60;;;31.60;57.00;;;;;;4973240;28;20406;-73
2022/07/17 11:59:43;;;;;;;1.50;1.40;;;31.10;56.80;;;;;;4973680;28;20408;-74
2022/07/17 12:02:14;;;;;;;1.37;1.37;;;30.90;56.90;;;;;;4974139;28;20474;-77
2022/07/17 12:04:59;;;;;;;1.80;1.70;;;31.00;57.90;;;;;;4974024;28;20908;-76
2022/07/17 12:07:38;;;;;;;1.60;1.50;;;31.10;57.80;;;;;;4972952;28;20454;-76
2022/07/17 12:10:22;;;;;;;1.50;1.40;;;30.80;57.10;;;;;;4972457;28;20979;-80
2022/07/17 12:13:07;;;;;;;2.23;1.50;;;30.50;56.10;;;;;;4973205;28;20514;-74
2022/07/17 12:15:46;;;;;;;2.10;1.37;;;30.50;56.60;;;;;;4980322;28;20426;-75
2022/07/17 12:18:23;;;;;;;1.90;1.30;;;30.50;56.80;;;;;;4985957;28;20721;-71
2022/07/17 12:20:52;;;;;;;1.53;1.43;;;30.50;56.20;;;;;;4882709;28;21067;-73
2022/07/17 12:23:32;;;;;;;1.67;1.57;;;30.70;57.60;;;;;;4920843;28;20456;-73
2022/07/17 12:26:05;;;;;;;1.37;1.27;;;30.80;57.00;;;;;;4908462;28;20792;-73
2022/07/17 12:28:31;;;;;;;1.53;1.37;;;30.90;56.10;;;;;;4897245;28;20656;-78
2022/07/17 12:30:56;;;;;;;4.17;1.60;;;31.00;56.80;;;;;;4895879;28;20860;-72
2022/07/17 12:33:22;;;;;;;4.97;1.77;;;31.20;57.90;;;;;;4895647;28;20714;-75
2022/07/17 12:35:48;;;;;;;1.60;1.50;;;31.20;57.40;;;;;;4911304;28;20429;-72
2022/07/17 12:38:14;;;;;;;2.57;1.40;;;30.90;55.60;;;;;;4921248;28;20315;-74
2022/07/17 12:40:41;;;;;;;4.03;1.30;;;30.80;56.80;;;;;;4918286;28;20684;-71
2022/07/17 12:43:08;;;;;;;1.77;1.37;;;30.70;55.60;;;;;;4921122;28;20218;-72
2022/07/17 12:45:34;;;;;;;2.07;1.10;;;30.60;56.30;;;;;;4920388;28;20566;-73
2022/07/17 12:48:00;;;;;;;1.63;1.53;;;30.60;56.00;;;;;;4917492;28;20878;-71
2022/07/17 12:50:26;;;;;;;1.10;1.10;;;30.40;56.60;;;;;;4912045;28;20477;-75
2022/07/17 12:52:52;;;;;;;1.40;1.30;;;30.50;55.60;;;;;;4887789;28;20503;-76
2022/07/17 12:55:17;;;;;;;1.60;1.50;;;30.50;56.60;;;;;;4918560;28;20293;-78
2022/07/17 12:57:43;;;;;;;1.27;1.23;;;30.50;55.30;;;;;;4900963;28;20422;-74
2022/07/17 13:00:09;;;;;;;1.50;1.40;;;30.40;55.60;;;;;;4921859;28;20466;-74
2022/07/17 13:02:35;;;;;;;2.00;1.80;;;30.50;58.40;;;;;;4917041;28;20810;-73
2022/07/17 13:05:01;;;;;;;1.40;1.30;;;30.50;55.30;;;;;;4919794;28;20422;-74
2022/07/17 13:07:27;;;;;;;1.30;1.20;;;30.30;55.30;;;;;;4915818;28;20561;-76
2022/07/17 13:09:53;;;;;;;1.48;1.38;;;30.40;55.20;;;;;;4888583;28;20734;-77
2022/07/17 13:12:19;;;;;;;1.77;1.67;;;30.40;55.40;;;;;;4856352;28;20530;-76
2022/07/17 13:14:45;;;;;;;1.60;1.50;;;30.40;55.40;;;;;;4860837;28;20926;-77
2022/07/17 13:17:11;;;;;;;1.27;1.17;;;30.00;56.00;;;;;;4853987;28;20323;-77
2022/07/17 13:19:37;;;;;;;1.33;1.33;;;29.90;58.10;;;;;;4856805;28;20336;-77
2022/07/17 13:22:03;;;;;;;1.53;1.43;;;29.90;57.00;;;;;;4853749;28;20646;-77
2022/07/17 13:24:30;;;;;;;2.07;1.70;;;29.60;57.90;;;;;;4853531;28;20485;-77
2022/07/17 13:26:57;;;;;;;1.80;1.70;;;29.30;58.40;;;;;;4854230;28;20831;-76
2022/07/17 13:29:24;;;;;;;1.73;1.63;;;28.90;58.50;;;;;;4853830;28;20706;-77
2022/07/17 13:31:51;;;;;;;2.07;1.97;;;28.70;59.10;;;;;;4837852;28;21165;-76
2022/07/17 13:34:17;;;;;;;1.90;1.80;;;28.50;59.10;;;;;;4853788;28;20598;-76
2022/07/17 13:36:43;;;;;;;1.50;1.50;;;28.50;59.80;;;;;;4860200;28;20740;-75
2022/07/17 13:39:08;;;;;;;1.70;1.60;;;28.60;62.50;;;;;;4853428;28;20419;-76
2022/07/17 13:41:37;;;;;;;1.50;1.40;;;28.90;59.90;;;;;;4853581;28;20607;-77
2022/07/17 13:44:04;;;;;;;3.20;1.70;;;28.80;58.90;;;;;;4853874;28;20514;-76
2022/07/17 13:46:30;;;;;;;5.43;1.60;;;28.70;59.10;;;;;;4852581;28;20790;-76
2022/07/17 13:48:56;;;;;;;1.90;1.80;;;28.60;59.10;;;;;;4853706;28;21144;-76
2022/07/17 13:51:22;;;;;;;1.50;1.40;;;28.70;59.80;;;;;;4852794;28;20673;-76
2022/07/17 13:53:48;;;;;;;5.27;1.50;;;28.90;61.10;;;;;;4859782;28;20640;-76
2022/07/17 13:56:14;;;;;;;1.80;1.70;;;29.00;60.60;;;;;;4853226;28;20800;-76
2022/07/17 13:58:40;;;;;;;3.20;3.07;;;29.00;58.90;;;;;;4853040;28;20971;-76
2022/07/17 14:01:06;;;;;;;2.33;1.70;;;29.10;58.40;;;;;;4837744;28;20913;-76
2022/07/17 14:03:32;;;;;;;1.87;1.70;;;29.10;58.20;;;;;;4853035;28;20669;-76
2022/07/17 14:05:58;;;;;;;3.13;1.23;;;29.10;58.40;;;;;;4853081;28;20184;-75
2022/07/17 14:08:24;;;;;;;1.47;1.37;;;29.20;59.30;;;;;;4854192;28;20764;-76
2022/07/17 14:10:50;;;;;;;1.40;1.30;;;29.40;58.10;;;;;;4870968;28;21122;-74
2022/07/17 14:13:16;;;;;;;1.60;1.50;;;29.40;57.60;;;;;;4871472;28;20976;-76
2022/07/17 14:15:42;;;;;;;2.93;1.30;;;29.30;56.60;;;;;;4853615;28;20923;-75
2022/07/17 14:18:08;;;;;;;1.43;1.33;;;29.10;56.10;;;;;;4862912;28;20435;-75